sensor_id;sensor_type;location;lat;lon;timestamp;pressure;altitude;pressure_sealevel;temperature;humidity
21877;BME280;11103;43.788;23.710;2023-04-07T00:00:19;-14922.56;;;-144.67;100.00
21877;BME280;11103;43.788;23.710;2023-04-07T00:02:45;-14922.56;;;-144.67;100.00
21877;BME280;11103;43.788;23.710;2023-04-07T00:05:11;-14922.56;;;-144.67;100.00
21877;BME280;11103;43.788;23.710;2023-04-07T00:07:37;-14922.56;;;-144.67;100.00
21877;BME280;11103;43.788;23.710;2023-04-07T00:10:02;-14922.56;;;-144.67;100.00
21877;BME280;11103;43.788;23.710;2023-04-07T00:12:28;-14922.56;;;-144.67;100.00
21877;BME280;11103;43.788;23.710;2023-04-07T00:14:53;-14922.56;;;-144.67;100.00
21877;BME280;11103;43.788;23.710;2023-04-07T00:17:18;-14922.56;;;-144.67;100.00
21877;BME280;11103;43.788;23.710;2023-04-07T00:19:44;-14922.56;;;-144.67;100.00
21877;BME280;11103;43.788;23.710;2023-04-07T00:22:09;-14922.56;;;-144.67;100.00
21877;BME280;11103;43.788;23.710;2023-04-07T00:24:35;-14922.56;;;-144.67;100.00
21877;BME280;11103;43.788;23.710;2023-04-07T00:27:01;-14922.56;;;-144.67;100.00
21877;BME280;11103;43.788;23.710;2023-04-07T00:29:26;-14922.56;;;-144.67;100.00
21877;BME280;11103;43.788;23.710;2023-04-07T00:31:51;-14922.56;;;-144.67;100.00
21877;BME280;11103;43.788;23.710;2023-04-07T00:34:17;-14922.56;;;-144.67;100.00
21877;BME280;11103;43.788;23.710;2023-04-07T00:36:42;-14922.56;;;-144.67;100.00
21877;BME280;11103;43.788;23.710;2023-04-07T00:39:08;-14922.56;;;-144.67;100.00
21877;BME280;11103;43.788;23.710;2023-04-07T00:41:34;-14922.56;;;-144.67;100.00
21877;BME280;11103;43.788;23.710;2023-04-07T00:44:00;-14922.56;;;-144.67;100.00
21877;BME280;11103;43.788;23.710;2023-04-07T00:46:25;-14922.56;;;-144.67;100.00
21877;BME280;11103;43.788;23.710;2023-04-07T00:48:51;-14922.56;;;-144.67;100.00
21877;BME280;11103;43.788;23.710;2023-04-07T00:51:20;-14922.56;;;-144.67;100.00
21877;BME280;11103;43.788;23.710;2023-04-07T00:53:46;-14922.56;;;-144.67;100.00
21877;BME280;11103;43.788;23.710;2023-04-07T00:56:12;-14922.56;;;-144.67;100.00
21877;BME280;11103;43.788;23.710;2023-04-07T00:58:37;-14922.56;;;-144.67;100.00
21877;BME280;11103;43.788;23.710;2023-04-07T01:01:07;-14922.56;;;-144.67;100.00
21877;BME280;11103;43.788;23.710;2023-04-07T01:03:43;-14922.56;;;-144.67;100.00
21877;BME280;11103;43.788;23.710;2023-04-07T01:06:13;-14922.56;;;-144.67;100.00
21877;BME280;11103;43.788;23.710;2023-04-07T01:11:34;-14922.56;;;-144.67;100.00
21877;BME280;11103;43.788;23.710;2023-04-07T01:14:02;-14922.56;;;-144.67;100.00
21877;BME280;11103;43.788;23.710;2023-04-07T01:16:39;-14922.56;;;-144.67;100.00
21877;BME280;11103;43.788;23.710;2023-04-07T01:19:14;-14922.56;;;-144.67;100.00
21877;BME280;11103;43.788;23.710;2023-04-07T01:21:43;-14922.56;;;-144.67;100.00
21877;BME280;11103;43.788;23.710;2023-04-07T01:26:42;-14922.56;;;-144.67;100.00
21877;BME280;11103;43.788;23.710;2023-04-07T01:32:03;-14922.56;;;-144.67;100.00
21877;BME280;11103;43.788;23.710;2023-04-07T01:34:31;-14922.56;;;-144.67;100.00
21877;BME280;11103;43.788;23.710;2023-04-07T01:36:58;-14922.56;;;-144.67;100.00
21877;BME280;11103;43.788;23.710;2023-04-07T01:39:26;-14922.56;;;-144.67;100.00
21877;BME280;11103;43.788;23.710;2023-04-07T01:41:52;-14922.56;;;-144.67;100.00
21877;BME280;11103;43.788;23.710;2023-04-07T01:44:19;-14922.56;;;-144.67;100.00
21877;BME280;11103;43.788;23.710;2023-04-07T01:46:45;-14922.56;;;-144.67;100.00
21877;BME280;11103;43.788;23.710;2023-04-07T01:49:12;-14922.56;;;-144.67;100.00
21877;BME280;11103;43.788;23.710;2023-04-07T01:51:39;-14922.56;;;-144.67;100.00
21877;BME280;11103;43.788;23.710;2023-04-07T01:54:05;-14922.56;;;-144.67;100.00
21877;BME280;11103;43.788;23.710;2023-04-07T01:56:32;-14922.56;;;-144.67;100.00
21877;BME280;11103;43.788;23.710;2023-04-07T01:58:57;-14922.56;;;-144.67;100.00
21877;BME280;11103;43.788;23.710;2023-04-07T02:01:23;-14922.56;;;-144.67;100.00
21877;BME280;11103;43.788;23.710;2023-04-07T02:03:55;-14922.56;;;-144.67;100.00
21877;BME280;11103;43.788;23.710;2023-04-07T02:06:28;-14922.56;;;-144.67;100.00
21877;BME280;11103;43.788;23.710;2023-04-07T02:08:59;-14922.56;;;-144.67;100.00
21877;BME280;11103;43.788;23.710;2023-04-07T02:11:28;-14922.56;;;-144.67;100.00
21877;BME280;11103;43.788;23.710;2023-04-07T02:13:57;-14922.56;;;-144.67;100.00
21877;BME280;11103;43.788;23.710;2023-04-07T02:16:27;-14922.56;;;-144.67;100.00
21877;BME280;11103;43.788;23.710;2023-04-07T02:18:53;-14922.56;;;-144.67;100.00
21877;BME280;11103;43.788;23.710;2023-04-07T02:21:19;-14922.56;;;-144.67;100.00
21877;BME280;11103;43.788;23.710;2023-04-07T02:23:45;-14922.56;;;-144.67;100.00
21877;BME280;11103;43.788;23.710;2023-04-07T02:26:11;-14922.56;;;-144.67;100.00
21877;BME280;11103;43.788;23.710;2023-04-07T02:28:36;-14922.56;;;-144.67;100.00
21877;BME280;11103;43.788;23.710;2023-04-07T02:31:01;-14922.56;;;-144.67;100.00
21877;BME280;11103;43.788;23.710;2023-04-07T02:33:27;-14922.56;;;-144.67;100.00
21877;BME280;11103;43.788;23.710;2023-04-07T02:35:52;-14922.56;;;-144.67;100.00
21877;BME280;11103;43.788;23.710;2023-04-07T02:38:18;-14922.56;;;-144.67;100.00
21877;BME280;11103;43.788;23.710;2023-04-07T02:40:43;-14922.56;;;-144.67;100.00
21877;BME280;11103;43.788;23.710;2023-04-07T02:43:08;-14922.56;;;-144.67;100.00
21877;BME280;11103;43.788;23.710;2023-04-07T02:45:34;-14922.56;;;-144.67;100.00
21877;BME280;11103;43.788;23.710;2023-04-07T02:47:59;-14922.56;;;-144.67;100.00
21877;BME280;11103;43.788;23.710;2023-04-07T02:50:25;-14922.56;;;-144.67;100.00
21877;BME280;11103;43.788;23.710;2023-04-07T02:52:50;-14922.56;;;-144.67;100.00
21877;BME280;11103;43.788;23.710;2023-04-07T02:55:16;-14922.56;;;-144.67;100.00
21877;BME280;11103;43.788;23.710;2023-04-07T02:57:42;-14922.56;;;-144.67;100.00
21877;BME280;11103;43.788;23.710;2023-04-07T03:00:08;-14922.56;;;-144.67;100.00
21877;BME280;11103;43.788;23.710;2023-04-07T03:02:34;-14922.56;;;-144.67;100.00
21877;BME280;11103;43.788;23.710;2023-04-07T03:04:59;-14922.56;;;-144.67;100.00
21877;BME280;11103;43.788;23.710;2023-04-07T03:07:26;-14922.56;;;-144.67;100.00
21877;BME280;11103;43.788;23.710;2023-04-07T03:09:51;-14922.56;;;-144.67;100.00
21877;BME280;11103;43.788;23.710;2023-04-07T03:12:16;-14922.56;;;-144.67;100.00
21877;BME280;11103;43.788;23.710;2023-04-07T03:14:42;-14922.56;;;-144.67;100.00
21877;BME280;11103;43.788;23.710;2023-04-07T03:17:07;-14922.56;;;-144.67;100.00
21877;BME280;11103;43.788;23.710;2023-04-07T03:19:33;-14922.56;;;-144.67;100.00
21877;BME280;11103;43.788;23.710;2023-04-07T03:21:58;-14922.56;;;-144.67;100.00
21877;BME280;11103;43.788;23.710;2023-04-07T03:24:23;-14922.56;;;-144.67;100.00
21877;BME280;11103;43.788;23.710;2023-04-07T03:26:49;-14922.56;;;-144.67;100.00
21877;BME280;11103;43.788;23.710;2023-04-07T03:29:15;-14922.56;;;-144.67;100.00
21877;BME280;11103;43.788;23.710;2023-04-07T03:31:41;-14922.56;;;-144.67;100.00
21877;BME280;11103;43.788;23.710;2023-04-07T03:34:07;-14922.56;;;-144.67;100.00
21877;BME280;11103;43.788;23.710;2023-04-07T03:36:32;-14922.56;;;-144.67;100.00
21877;BME280;11103;43.788;23.710;2023-04-07T03:38:58;-14922.56;;;-144.67;100.00
21877;BME280;11103;43.788;23.710;2023-04-07T03:41:24;-14922.56;;;-144.67;100.00
21877;BME280;11103;43.788;23.710;2023-04-07T03:43:49;-14922.56;;;-144.67;100.00
21877;BME280;11103;43.788;23.710;2023-04-07T03:46:14;-14922.56;;;-144.67;100.00
21877;BME280;11103;43.788;23.710;2023-04-07T03:48:40;-14922.56;;;-144.67;100.00
21877;BME280;11103;43.788;23.710;2023-04-07T03:51:05;-14922.56;;;-144.67;100.00
21877;BME280;11103;43.788;23.710;2023-04-07T03:53:31;-14922.56;;;-144.67;100.00
21877;BME280;11103;43.788;23.710;2023-04-07T03:55:57;-14922.56;;;-144.67;100.00
21877;BME280;11103;43.788;23.710;2023-04-07T03:58:23;-14922.56;;;-144.67;100.00
21877;BME280;11103;43.788;23.710;2023-04-07T04:00:48;-14922.56;;;-144.67;100.00
21877;BME280;11103;43.788;23.710;2023-04-07T04:03:13;-14922.56;;;-144.67;100.00
21877;BME280;11103;43.788;23.710;2023-04-07T04:05:39;-14922.56;;;-144.67;100.00
21877;BME280;11103;43.788;23.710;2023-04-07T04:08:05;-14922.56;;;-144.67;100.00
21877;BME280;11103;43.788;23.710;2023-04-07T04:10:31;-14922.56;;;-144.67;100.00
21877;BME280;11103;43.788;23.710;2023-04-07T04:12:56;-14922.56;;;-144.67;100.00
21877;BME280;11103;43.788;23.710;2023-04-07T04:15:24;-14922.56;;;-144.67;100.00
21877;BME280;11103;43.788;23.710;2023-04-07T04:17:50;-14922.56;;;-144.67;100.00
21877;BME280;11103;43.788;23.710;2023-04-07T04:20:15;-14922.56;;;-144.67;100.00
21877;BME280;11103;43.788;23.710;2023-04-07T04:22:41;-14922.56;;;-144.67;100.00
21877;BME280;11103;43.788;23.710;2023-04-07T04:25:06;-14922.56;;;-144.67;100.00
21877;BME280;11103;43.788;23.710;2023-04-07T04:27:32;-14922.56;;;-144.67;100.00
21877;BME280;11103;43.788;23.710;2023-04-07T04:29:57;-14922.56;;;-144.67;100.00
21877;BME280;11103;43.788;23.710;2023-04-07T04:32:23;-14922.56;;;-144.67;100.00
21877;BME280;11103;43.788;23.710;2023-04-07T04:34:48;-14922.56;;;-144.67;100.00
21877;BME280;11103;43.788;23.710;2023-04-07T04:37:13;-14922.56;;;-144.67;100.00
21877;BME280;11103;43.788;23.710;2023-04-07T04:39:39;-14922.56;;;-144.67;100.00
21877;BME280;11103;43.788;23.710;2023-04-07T04:42:04;-14922.56;;;-144.67;100.00
21877;BME280;11103;43.788;23.710;2023-04-07T04:44:30;-14922.56;;;-144.67;100.00
21877;BME280;11103;43.788;23.710;2023-04-07T04:46:56;-14922.56;;;-144.67;100.00
21877;BME280;11103;43.788;23.710;2023-04-07T04:49:21;-14922.56;;;-144.67;100.00
21877;BME280;11103;43.788;23.710;2023-04-07T04:51:47;-14922.56;;;-144.67;100.00
21877;BME280;11103;43.788;23.710;2023-04-07T04:54:12;-14922.56;;;-144.67;100.00
21877;BME280;11103;43.788;23.710;2023-04-07T04:56:38;-14922.56;;;-144.67;100.00
21877;BME280;11103;43.788;23.710;2023-04-07T04:59:03;-14922.56;;;-144.67;100.00
21877;BME280;11103;43.788;23.710;2023-04-07T05:01:29;-14922.56;;;-144.67;100.00
21877;BME280;11103;43.788;23.710;2023-04-07T05:03:55;-14922.56;;;-144.67;100.00
21877;BME280;11103;43.788;23.710;2023-04-07T05:06:20;-14922.56;;;-144.67;100.00
21877;BME280;11103;43.788;23.710;2023-04-07T05:08:46;-14922.56;;;-144.67;100.00
21877;BME280;11103;43.788;23.710;2023-04-07T05:11:11;-14922.56;;;-144.67;100.00
21877;BME280;11103;43.788;23.710;2023-04-07T05:13:37;-14922.56;;;-144.67;100.00
21877;BME280;11103;43.788;23.710;2023-04-07T05:16:03;-14922.56;;;-144.67;100.00
21877;BME280;11103;43.788;23.710;2023-04-07T05:18:28;-14922.56;;;-144.67;100.00
21877;BME280;11103;43.788;23.710;2023-04-07T05:20:53;-14922.56;;;-144.67;100.00
21877;BME280;11103;43.788;23.710;2023-04-07T05:23:19;-14922.56;;;-144.67;100.00
21877;BME280;11103;43.788;23.710;2023-04-07T05:25:45;-14922.56;;;-144.67;100.00
21877;BME280;11103;43.788;23.710;2023-04-07T05:28:10;-14922.56;;;-144.67;100.00
21877;BME280;11103;43.788;23.710;2023-04-07T05:30:35;-14922.56;;;-144.67;100.00
21877;BME280;11103;43.788;23.710;2023-04-07T05:33:01;-14922.56;;;-144.67;100.00
21877;BME280;11103;43.788;23.710;2023-04-07T05:35:26;-14922.56;;;-144.67;100.00
21877;BME280;11103;43.788;23.710;2023-04-07T05:37:52;-11726.28;;;-144.67;100.00
21877;BME280;11103;43.788;23.710;2023-04-07T05:40:17;-3355.69;;;-144.67;93.40
21877;BME280;11103;43.788;23.710;2023-04-07T05:42:43;2072.00;;;-144.67;90.77
21877;BME280;11103;43.788;23.710;2023-04-07T05:45:09;-4834.41;;;-144.67;97.05
21877;BME280;11103;43.788;23.710;2023-04-07T05:47:34;-12218.00;;;-144.67;100.00
21877;BME280;11103;43.788;23.710;2023-04-07T05:50:00;-14922.56;;;-144.67;100.00
21877;BME280;11103;43.788;23.710;2023-04-07T05:52:25;-14922.56;;;-144.67;100.00
21877;BME280;11103;43.788;23.710;2023-04-07T05:54:51;-14922.56;;;-144.67;100.00
21877;BME280;11103;43.788;23.710;2023-04-07T05:57:16;-10988.56;;;-144.67;100.00
21877;BME280;11103;43.788;23.710;2023-04-07T05:59:42;-5327.19;;;-144.67;97.15
21877;BME280;11103;43.788;23.710;2023-04-07T06:02:07;-8528.28;;;-144.67;100.00
21877;BME280;11103;43.788;23.710;2023-04-07T06:04:32;-14922.56;;;-144.67;100.00
21877;BME280;11103;43.788;23.710;2023-04-07T06:07:00;-14922.56;;;-144.67;100.00
21877;BME280;11103;43.788;23.710;2023-04-07T06:09:25;-14922.56;;;-144.67;100.00
21877;BME280;11103;43.788;23.710;2023-04-07T06:11:51;-14922.56;;;-144.67;100.00
21877;BME280;11103;43.788;23.710;2023-04-07T06:14:17;-14922.56;;;-144.67;100.00
21877;BME280;11103;43.788;23.710;2023-04-07T06:16:42;-14922.56;;;-144.67;100.00
21877;BME280;11103;43.788;23.710;2023-04-07T06:19:08;-14922.56;;;-144.67;100.00
21877;BME280;11103;43.788;23.710;2023-04-07T06:21:33;-14922.56;;;-144.67;100.00
21877;BME280;11103;43.788;23.710;2023-04-07T06:23:59;-14922.56;;;-144.67;100.00
21877;BME280;11103;43.788;23.710;2023-04-07T06:26:25;-14922.56;;;-144.67;100.00
21877;BME280;11103;43.788;23.710;2023-04-07T06:28:51;-14922.56;;;-144.67;100.00
21877;BME280;11103;43.788;23.710;2023-04-07T06:31:17;-14922.56;;;-144.67;100.00
21877;BME280;11103;43.788;23.710;2023-04-07T06:33:43;-14922.56;;;-144.67;100.00
21877;BME280;11103;43.788;23.710;2023-04-07T06:36:08;-14922.56;;;-144.67;100.00
21877;BME280;11103;43.788;23.710;2023-04-07T06:38:34;-14922.56;;;-144.67;100.00
21877;BME280;11103;43.788;23.710;2023-04-07T06:41:00;-14922.56;;;-144.67;100.00
21877;BME280;11103;43.788;23.710;2023-04-07T06:43:25;-14922.56;;;-144.67;100.00
21877;BME280;11103;43.788;23.710;2023-04-07T06:45:51;-14922.56;;;-144.67;100.00
21877;BME280;11103;43.788;23.710;2023-04-07T06:48:16;-14922.56;;;-144.67;100.00
21877;BME280;11103;43.788;23.710;2023-04-07T06:50:45;-14922.56;;;-144.67;100.00
21877;BME280;11103;43.788;23.710;2023-04-07T06:53:11;-14922.56;;;-144.67;100.00
21877;BME280;11103;43.788;23.710;2023-04-07T06:55:36;-14922.56;;;-144.67;100.00
21877;BME280;11103;43.788;23.710;2023-04-07T06:58:02;-14922.56;;;-144.67;100.00
21877;BME280;11103;43.788;23.710;2023-04-07T07:00:27;-14922.56;;;-144.67;100.00
21877;BME280;11103;43.788;23.710;2023-04-07T07:02:55;-14922.56;;;-144.67;100.00
21877;BME280;11103;43.788;23.710;2023-04-07T07:05:21;-14922.56;;;-144.67;100.00
21877;BME280;11103;43.788;23.710;2023-04-07T07:07:47;-14922.56;;;-144.67;100.00
21877;BME280;11103;43.788;23.710;2023-04-07T07:10:13;-14922.56;;;-144.67;100.00
21877;BME280;11103;43.788;23.710;2023-04-07T07:12:38;-14922.56;;;-144.67;100.00
21877;BME280;11103;43.788;23.710;2023-04-07T07:15:04;-14922.56;;;-144.67;100.00
21877;BME280;11103;43.788;23.710;2023-04-07T07:17:30;-14922.56;;;-144.67;100.00
21877;BME280;11103;43.788;23.710;2023-04-07T07:19:55;-14922.56;;;-144.67;100.00
21877;BME280;11103;43.788;23.710;2023-04-07T07:22:21;-14922.56;;;-144.67;100.00
21877;BME280;11103;43.788;23.710;2023-04-07T07:24:46;-14922.56;;;-144.67;100.00
21877;BME280;11103;43.788;23.710;2023-04-07T07:27:12;-14922.56;;;-144.67;100.00
21877;BME280;11103;43.788;23.710;2023-04-07T07:29:37;-14922.56;;;-144.67;100.00
21877;BME280;11103;43.788;23.710;2023-04-07T07:32:03;-14922.56;;;-144.67;100.00
21877;BME280;11103;43.788;23.710;2023-04-07T07:34:28;-14922.56;;;-144.67;100.00
21877;BME280;11103;43.788;23.710;2023-04-07T07:36:53;-14922.56;;;-144.67;100.00
21877;BME280;11103;43.788;23.710;2023-04-07T07:39:19;-14922.56;;;-144.67;100.00
21877;BME280;11103;43.788;23.710;2023-04-07T07:41:44;-14922.56;;;-144.67;100.00
21877;BME280;11103;43.788;23.710;2023-04-07T07:44:10;-14922.56;;;-144.67;100.00
21877;BME280;11103;43.788;23.710;2023-04-07T07:46:36;-14922.56;;;-144.67;100.00
21877;BME280;11103;43.788;23.710;2023-04-07T07:49:01;-14922.56;;;-144.67;100.00
21877;BME280;11103;43.788;23.710;2023-04-07T07:51:29;-14922.56;;;-144.67;100.00
21877;BME280;11103;43.788;23.710;2023-04-07T07:53:54;-14922.56;;;-144.67;100.00
21877;BME280;11103;43.788;23.710;2023-04-07T07:56:20;-14922.56;;;-144.67;100.00
21877;BME280;11103;43.788;23.710;2023-04-07T07:58:45;-14922.56;;;-144.67;100.00
21877;BME280;11103;43.788;23.710;2023-04-07T08:01:11;-14922.56;;;-144.67;100.00
21877;BME280;11103;43.788;23.710;2023-04-07T08:03:37;-14922.56;;;-144.67;100.00
21877;BME280;11103;43.788;23.710;2023-04-07T08:06:02;-14922.56;;;-144.67;100.00
21877;BME280;11103;43.788;23.710;2023-04-07T08:08:27;-14922.56;;;-144.67;100.00
21877;BME280;11103;43.788;23.710;2023-04-07T08:10:53;-14922.56;;;-144.67;100.00
21877;BME280;11103;43.788;23.710;2023-04-07T08:13:18;-14922.56;;;-144.67;100.00
21877;BME280;11103;43.788;23.710;2023-04-07T08:15:44;-14922.56;;;-144.67;100.00
21877;BME280;11103;43.788;23.710;2023-04-07T08:18:09;-14922.56;;;-144.67;100.00
21877;BME280;11103;43.788;23.710;2023-04-07T08:20:35;-14922.56;;;-144.67;100.00
21877;BME280;11103;43.788;23.710;2023-04-07T08:23:00;-14922.56;;;-144.67;100.00
21877;BME280;11103;43.788;23.710;2023-04-07T08:25:27;-14922.56;;;-144.67;100.00
21877;BME280;11103;43.788;23.710;2023-04-07T08:27:53;-14922.56;;;-144.67;100.00
21877;BME280;11103;43.788;23.710;2023-04-07T08:30:18;-14922.56;;;-144.67;100.00
21877;BME280;11103;43.788;23.710;2023-04-07T08:32:45;-14922.56;;;-144.67;100.00
21877;BME280;11103;43.788;23.710;2023-04-07T08:35:11;-14922.56;;;-144.67;100.00
21877;BME280;11103;43.788;23.710;2023-04-07T08:37:37;-14922.56;;;-144.67;100.00
21877;BME280;11103;43.788;23.710;2023-04-07T08:40:03;-14922.56;;;-144.67;100.00
21877;BME280;11103;43.788;23.710;2023-04-07T08:42:31;-14922.56;;;-144.67;100.00
21877;BME280;11103;43.788;23.710;2023-04-07T08:45:02;-14922.56;;;-144.67;100.00
21877;BME280;11103;43.788;23.710;2023-04-07T08:47:30;-14922.56;;;-144.67;100.00
21877;BME280;11103;43.788;23.710;2023-04-07T08:50:01;-14922.56;;;-144.67;100.00
21877;BME280;11103;43.788;23.710;2023-04-07T08:52:40;-14922.56;;;-144.67;100.00
21877;BME280;11103;43.788;23.710;2023-04-07T08:55:07;-14922.56;;;-144.67;100.00
21877;BME280;11103;43.788;23.710;2023-04-07T08:57:33;-14922.56;;;-144.67;100.00
21877;BME280;11103;43.788;23.710;2023-04-07T09:00:00;-14922.56;;;-144.67;100.00
21877;BME280;11103;43.788;23.710;2023-04-07T09:02:42;-14922.56;;;-144.67;100.00
21877;BME280;11103;43.788;23.710;2023-04-07T09:05:10;-14922.56;;;-144.67;100.00
21877;BME280;11103;43.788;23.710;2023-04-07T09:07:37;-14922.56;;;-144.67;100.00
21877;BME280;11103;43.788;23.710;2023-04-07T09:10:05;-14922.56;;;-144.67;100.00
21877;BME280;11103;43.788;23.710;2023-04-07T09:12:31;-14922.56;;;-144.67;100.00
21877;BME280;11103;43.788;23.710;2023-04-07T09:14:57;-14922.56;;;-144.67;100.00
21877;BME280;11103;43.788;23.710;2023-04-07T09:17:24;-14922.56;;;-144.67;100.00
21877;BME280;11103;43.788;23.710;2023-04-07T09:19:52;-14922.56;;;-144.67;100.00
21877;BME280;11103;43.788;23.710;2023-04-07T09:22:40;-14922.56;;;-144.67;100.00
21877;BME280;11103;43.788;23.710;2023-04-07T09:27:39;-14922.56;;;-144.67;100.00
21877;BME280;11103;43.788;23.710;2023-04-07T09:30:12;-14922.56;;;-144.67;100.00
21877;BME280;11103;43.788;23.710;2023-04-07T09:32:39;-14922.56;;;-144.67;100.00
21877;BME280;11103;43.788;23.710;2023-04-07T09:35:06;-14922.56;;;-144.67;100.00
21877;BME280;11103;43.788;23.710;2023-04-07T09:37:31;-14922.56;;;-144.67;100.00
21877;BME280;11103;43.788;23.710;2023-04-07T09:39:57;-14922.56;;;-144.67;100.00
21877;BME280;11103;43.788;23.710;2023-04-07T09:42:22;-14922.56;;;-144.67;100.00
21877;BME280;11103;43.788;23.710;2023-04-07T09:44:47;-14922.56;;;-144.67;100.00
21877;BME280;11103;43.788;23.710;2023-04-07T09:47:13;-14922.56;;;-144.67;100.00
21877;BME280;11103;43.788;23.710;2023-04-07T09:49:52;-14922.56;;;-144.67;100.00
21877;BME280;11103;43.788;23.710;2023-04-07T09:52:21;-14922.56;;;-144.67;100.00
21877;BME280;11103;43.788;23.710;2023-04-07T09:54:47;-14922.56;;;-144.67;100.00
21877;BME280;11103;43.788;23.710;2023-04-07T09:57:13;-14922.56;;;-144.67;100.00
21877;BME280;11103;43.788;23.710;2023-04-07T09:59:41;-14922.56;;;-144.67;100.00
21877;BME280;11103;43.788;23.710;2023-04-07T10:02:09;-14922.56;;;-144.67;100.00
21877;BME280;11103;43.788;23.710;2023-04-07T10:04:35;-14922.56;;;-144.67;100.00
21877;BME280;11103;43.788;23.710;2023-04-07T10:07:01;-14922.56;;;-144.67;100.00
21877;BME280;11103;43.788;23.710;2023-04-07T10:09:28;-14922.56;;;-144.67;100.00
21877;BME280;11103;43.788;23.710;2023-04-07T10:11:55;-14922.56;;;-144.67;100.00
21877;BME280;11103;43.788;23.710;2023-04-07T10:14:27;-14922.56;;;-144.67;100.00
21877;BME280;11103;43.788;23.710;2023-04-07T10:16:52;-14922.56;;;-144.67;100.00
21877;BME280;11103;43.788;23.710;2023-04-07T10:19:20;-14922.56;;;-144.67;100.00
21877;BME280;11103;43.788;23.710;2023-04-07T10:21:50;-14922.56;;;-144.67;100.00
21877;BME280;11103;43.788;23.710;2023-04-07T10:27:15;-14922.56;;;-144.67;100.00
21877;BME280;11103;43.788;23.710;2023-04-07T10:29:44;-14922.56;;;-144.67;100.00
21877;BME280;11103;43.788;23.710;2023-04-07T10:32:11;-14922.56;;;-144.67;100.00
21877;BME280;11103;43.788;23.710;2023-04-07T10:37:15;-14922.56;;;-144.67;100.00
21877;BME280;11103;43.788;23.710;2023-04-07T10:39:48;-14922.56;;;-144.67;100.00
21877;BME280;11103;43.788;23.710;2023-04-07T10:45:02;-14922.56;;;-144.67;100.00
21877;BME280;11103;43.788;23.710;2023-04-07T10:47:27;-14922.56;;;-144.67;100.00
21877;BME280;11103;43.788;23.710;2023-04-07T10:52:37;-14922.56;;;-144.67;100.00
21877;BME280;11103;43.788;23.710;2023-04-07T10:55:28;-14922.56;;;-144.67;100.00
21877;BME280;11103;43.788;23.710;2023-04-07T10:58:20;-14922.56;;;-144.67;100.00
21877;BME280;11103;43.788;23.710;2023-04-07T11:03:24;-14922.56;;;-144.67;100.00
21877;BME280;11103;43.788;23.710;2023-04-07T11:05:49;-14922.56;;;-144.67;100.00
21877;BME280;11103;43.788;23.710;2023-04-07T11:08:31;-14922.56;;;-144.67;100.00
21877;BME280;11103;43.788;23.710;2023-04-07T11:10:57;-14922.56;;;-144.67;100.00
21877;BME280;11103;43.788;23.710;2023-04-07T11:13:22;-14922.56;;;-144.67;100.00
21877;BME280;11103;43.788;23.710;2023-04-07T11:15:49;-14922.56;;;-144.67;100.00
21877;BME280;11103;43.788;23.710;2023-04-07T11:18:19;-14922.56;;;-144.67;100.00
21877;BME280;11103;43.788;23.710;2023-04-07T11:23:17;-14922.56;;;-144.67;100.00
21877;BME280;11103;43.788;23.710;2023-04-07T11:25:44;-14922.56;;;-144.67;100.00
21877;BME280;11103;43.788;23.710;2023-04-07T11:28:12;-14922.56;;;-144.67;100.00
21877;BME280;11103;43.788;23.710;2023-04-07T11:30:42;-14922.56;;;-144.67;100.00
21877;BME280;11103;43.788;23.710;2023-04-07T11:33:08;-14922.56;;;-144.67;100.00
21877;BME280;11103;43.788;23.710;2023-04-07T11:35:34;-14922.56;;;-144.67;100.00
21877;BME280;11103;43.788;23.710;2023-04-07T11:38:00;-14922.56;;;-144.67;100.00
21877;BME280;11103;43.788;23.710;2023-04-07T11:40:35;-14922.56;;;-144.67;100.00
21877;BME280;11103;43.788;23.710;2023-04-07T11:43:02;-14922.56;;;-144.67;100.00
21877;BME280;11103;43.788;23.710;2023-04-07T11:45:39;-14922.56;;;-144.67;100.00
21877;BME280;11103;43.788;23.710;2023-04-07T11:48:05;-14922.56;;;-144.67;100.00
21877;BME280;11103;43.788;23.710;2023-04-07T11:50:49;-14922.56;;;-144.67;100.00
21877;BME280;11103;43.788;23.710;2023-04-07T11:53:24;-14922.56;;;-144.67;100.00
21877;BME280;11103;43.788;23.710;2023-04-07T11:56:04;-14922.56;;;-144.67;100.00
21877;BME280;11103;43.788;23.710;2023-04-07T11:58:31;-14922.56;;;-144.67;100.00
21877;BME280;11103;43.788;23.710;2023-04-07T12:00:58;-14922.56;;;-144.67;100.00
21877;BME280;11103;43.788;23.710;2023-04-07T12:03:27;-14922.56;;;-144.67;100.00
21877;BME280;11103;43.788;23.710;2023-04-07T12:05:53;-14922.56;;;-144.67;100.00
21877;BME280;11103;43.788;23.710;2023-04-07T12:08:19;-14922.56;;;-144.67;100.00
21877;BME280;11103;43.788;23.710;2023-04-07T12:10:45;-14922.56;;;-144.67;100.00
21877;BME280;11103;43.788;23.710;2023-04-07T12:13:12;-14922.56;;;-144.67;100.00
21877;BME280;11103;43.788;23.710;2023-04-07T12:15:37;-14922.56;;;-144.67;100.00
21877;BME280;11103;43.788;23.710;2023-04-07T12:18:03;-14922.56;;;-144.67;100.00
21877;BME280;11103;43.788;23.710;2023-04-07T12:20:28;-14922.56;;;-144.67;100.00
21877;BME280;11103;43.788;23.710;2023-04-07T12:22:54;-14922.56;;;-144.67;100.00
21877;BME280;11103;43.788;23.710;2023-04-07T12:25:20;-14922.56;;;-144.67;100.00
21877;BME280;11103;43.788;23.710;2023-04-07T12:27:45;-14922.56;;;-144.67;100.00
21877;BME280;11103;43.788;23.710;2023-04-07T12:30:11;-14922.56;;;-144.67;100.00
21877;BME280;11103;43.788;23.710;2023-04-07T12:32:37;-14922.56;;;-144.67;100.00
21877;BME280;11103;43.788;23.710;2023-04-07T12:35:03;-14922.56;;;-144.67;100.00